Terminal Aerodrome Forecast
Issued by NWS Northern Indiana

Home | Current Version | Previous Version | Text Only | Print | Product List | Glossary Off
Versions: 1 2 3 4 5 6 7 8 9 10 11 12 13 14

000
FTUS43 KIWX 230500
TAFFWA
TAF
KFWA 230538Z 2306/2406 20010KT P6SM -RA SCT030 BKN050 WS020/24045KT
     FM230800 20011KT 5SM -SHRA BR OVC030
     FM231400 16010KT P6SM OVC035
     FM232000 13012KT 5SM BR OVC010
     FM232300 12012KT 3SM RA BR OVC008 WS020/18050KT=

USA.gov is the U.S. government's official web portal to all federal, state and local government web resources and services.